sensor_id;sensor_type;location;lat;lon;timestamp;pressure;altitude;pressure_sealevel;temperature;humidity
65384;BME280;51986;52.788;41.368;2022-12-07T00:01:27;101137.25;;;-10.23;60.07
65384;BME280;51986;52.788;41.368;2022-12-07T00:03:57;101120.69;;;-10.39;59.89
65384;BME280;51986;52.788;41.368;2022-12-07T00:06:25;101133.84;;;-10.17;59.50
65384;BME280;51986;52.788;41.368;2022-12-07T00:08:51;101134.06;;;-10.19;59.13
65384;BME280;51986;52.788;41.368;2022-12-07T00:11:20;101118.75;;;-10.19;58.99
65384;BME280;51986;52.788;41.368;2022-12-07T00:13:58;101124.75;;;-10.07;58.88
65384;BME280;51986;52.788;41.368;2022-12-07T00:16:29;101112.97;;;-10.08;58.91
65384;BME280;51986;52.788;41.368;2022-12-07T00:18:57;101136.53;;;-10.06;58.50
65384;BME280;51986;52.788;41.368;2022-12-07T00:21:28;101133.38;;;-10.08;58.44
65384;BME280;51986;52.788;41.368;2022-12-07T00:23:56;101117.56;;;-10.16;58.59
65384;BME280;51986;52.788;41.368;2022-12-07T00:26:25;101119.91;;;-10.15;59.05
65384;BME280;51986;52.788;41.368;2022-12-07T00:28:55;101131.25;;;-10.11;58.73
65384;BME280;51986;52.788;41.368;2022-12-07T00:31:25;101137.03;;;-10.22;58.81
65384;BME280;51986;52.788;41.368;2022-12-07T00:33:53;101119.69;;;-10.13;58.70
65384;BME280;51986;52.788;41.368;2022-12-07T00:36:22;101108.31;;;-10.17;58.53
65384;BME280;51986;52.788;41.368;2022-12-07T00:38:54;101145.81;;;-10.11;59.03
65384;BME280;51986;52.788;41.368;2022-12-07T00:41:24;101112.97;;;-10.08;58.27
65384;BME280;51986;52.788;41.368;2022-12-07T00:43:51;101122.84;;;-10.11;58.25
65384;BME280;51986;52.788;41.368;2022-12-07T00:46:19;101133.13;;;-9.99;58.10
65384;BME280;51986;52.788;41.368;2022-12-07T00:48:47;101127.34;;;-10.38;58.70
65384;BME280;51986;52.788;41.368;2022-12-07T00:51:16;101129.66;;;-10.30;58.83
65384;BME280;51986;52.788;41.368;2022-12-07T00:53:44;101136.31;;;-10.29;59.17
65384;BME280;51986;52.788;41.368;2022-12-07T00:56:19;101109.94;;;-10.23;58.94
65384;BME280;51986;52.788;41.368;2022-12-07T00:58:55;101106.84;;;-10.50;59.09
65384;BME280;51986;52.788;41.368;2022-12-07T01:01:23;101099.44;;;-10.58;59.84
65384;BME280;51986;52.788;41.368;2022-12-07T01:03:50;101095.47;;;-10.79;59.98
65384;BME280;51986;52.788;41.368;2022-12-07T01:06:19;101109.16;;;-10.80;60.49
65384;BME280;51986;52.788;41.368;2022-12-07T01:08:46;101098.66;;;-10.59;59.94
65384;BME280;51986;52.788;41.368;2022-12-07T01:11:18;101111.41;;;-10.59;59.83
65384;BME280;51986;52.788;41.368;2022-12-07T01:13:46;101117.03;;;-10.82;60.23
65384;BME280;51986;52.788;41.368;2022-12-07T01:16:16;101122.09;;;-10.75;60.44
65384;BME280;51986;52.788;41.368;2022-12-07T01:18:47;101107.13;;;-10.65;59.85
65384;BME280;51986;52.788;41.368;2022-12-07T01:21:18;101129.88;;;-10.63;59.91
65384;BME280;51986;52.788;41.368;2022-12-07T01:23:45;101124.28;;;-10.78;60.33
65384;BME280;51986;52.788;41.368;2022-12-07T01:26:15;101138.66;;;-10.91;60.71
65384;BME280;51986;52.788;41.368;2022-12-07T01:28:43;101127.50;;;-10.96;61.03
65384;BME280;51986;52.788;41.368;2022-12-07T01:31:13;101145.91;;;-10.94;60.87
65384;BME280;51986;52.788;41.368;2022-12-07T01:33:41;101119.22;;;-10.85;60.57
65384;BME280;51986;52.788;41.368;2022-12-07T01:36:16;101158.53;;;-10.68;60.45
65384;BME280;51986;52.788;41.368;2022-12-07T01:38:45;101101.03;;;-10.95;60.34
65384;BME280;51986;52.788;41.368;2022-12-07T01:41:13;101123.91;;;-10.82;60.27
65384;BME280;51986;52.788;41.368;2022-12-07T01:46:39;101112.38;;;-10.91;60.70
65384;BME280;51986;52.788;41.368;2022-12-07T01:49:10;101108.44;;;-10.56;60.50
65384;BME280;51986;52.788;41.368;2022-12-07T01:51:40;101112.66;;;-10.68;60.51
65384;BME280;51986;52.788;41.368;2022-12-07T01:54:09;101124.22;;;-10.72;61.33
65384;BME280;51986;52.788;41.368;2022-12-07T01:56:40;101128.16;;;-11.08;62.75
65384;BME280;51986;52.788;41.368;2022-12-07T01:59:09;101141.69;;;-10.69;62.26
65384;BME280;51986;52.788;41.368;2022-12-07T02:01:36;101137.59;;;-10.45;60.95
65384;BME280;51986;52.788;41.368;2022-12-07T02:04:04;101141.59;;;-10.56;61.63
65384;BME280;51986;52.788;41.368;2022-12-07T02:06:33;101105.38;;;-10.39;61.10
65384;BME280;51986;52.788;41.368;2022-12-07T02:09:01;101134.00;;;-10.37;61.23
65384;BME280;51986;52.788;41.368;2022-12-07T02:11:28;101130.06;;;-10.33;61.00
65384;BME280;51986;52.788;41.368;2022-12-07T02:13:55;101144.59;;;-10.09;61.00
65384;BME280;51986;52.788;41.368;2022-12-07T02:27:43;101124.31;;;-10.04;60.81
65384;BME280;51986;52.788;41.368;2022-12-07T02:30:14;101113.91;;;-10.27;60.93
65384;BME280;51986;52.788;41.368;2022-12-07T02:33:26;101143.91;;;-9.79;59.94
65384;BME280;51986;52.788;41.368;2022-12-07T02:36:08;101136.34;;;-9.49;59.29
65384;BME280;51986;52.788;41.368;2022-12-07T02:38:58;101142.09;;;-9.54;59.56
65384;BME280;51986;52.788;41.368;2022-12-07T02:41:35;101133.66;;;-9.54;60.03
65384;BME280;51986;52.788;41.368;2022-12-07T02:44:07;101110.03;;;-9.68;59.67
65384;BME280;51986;52.788;41.368;2022-12-07T02:46:40;101117.44;;;-9.85;60.39
65384;BME280;51986;52.788;41.368;2022-12-07T02:49:09;101140.97;;;-9.58;59.67
65384;BME280;51986;52.788;41.368;2022-12-07T02:51:45;101120.00;;;-9.66;60.34
65384;BME280;51986;52.788;41.368;2022-12-07T02:54:15;101132.00;;;-9.67;60.19
65384;BME280;51986;52.788;41.368;2022-12-07T02:56:49;101131.25;;;-9.49;59.67
65384;BME280;51986;52.788;41.368;2022-12-07T02:59:25;101128.31;;;-9.34;59.11
65384;BME280;51986;52.788;41.368;2022-12-07T03:10:19;101114.00;;;-9.54;59.16
65384;BME280;51986;52.788;41.368;2022-12-07T03:13:02;101082.06;;;-9.63;58.67
65384;BME280;51986;52.788;41.368;2022-12-07T03:15:49;101114.69;;;-9.65;58.99
65384;BME280;51986;52.788;41.368;2022-12-07T03:18:21;101121.66;;;-9.72;58.23
65384;BME280;51986;52.788;41.368;2022-12-07T03:20:51;101092.69;;;-9.84;58.17
65384;BME280;51986;52.788;41.368;2022-12-07T03:23:21;101115.25;;;-9.99;58.67
65384;BME280;51986;52.788;41.368;2022-12-07T03:25:53;101080.25;;;-10.17;58.87
65384;BME280;51986;52.788;41.368;2022-12-07T03:28:31;101080.91;;;-10.04;58.52
65384;BME280;51986;52.788;41.368;2022-12-07T03:31:14;101080.72;;;-10.27;58.90
65384;BME280;51986;52.788;41.368;2022-12-07T03:34:20;101119.22;;;-10.53;59.36
65384;BME280;51986;52.788;41.368;2022-12-07T03:37:05;101100.78;;;-10.56;60.23
65384;BME280;51986;52.788;41.368;2022-12-07T03:39:49;101095.28;;;-10.52;59.82
65384;BME280;51986;52.788;41.368;2022-12-07T03:42:19;101088.94;;;-10.75;59.80
65384;BME280;51986;52.788;41.368;2022-12-07T03:44:47;101101.28;;;-10.40;58.85
65384;BME280;51986;52.788;41.368;2022-12-07T03:47:34;101109.34;;;-10.43;59.19
65384;BME280;51986;52.788;41.368;2022-12-07T03:52:40;101079.75;;;-10.51;58.68
65384;BME280;51986;52.788;41.368;2022-12-07T03:55:22;101106.53;;;-10.67;59.16
65384;BME280;51986;52.788;41.368;2022-12-07T03:57:55;101103.84;;;-10.72;59.72
65384;BME280;51986;52.788;41.368;2022-12-07T04:00:25;101102.91;;;-10.52;59.09
65384;BME280;51986;52.788;41.368;2022-12-07T04:02:53;101095.28;;;-10.52;59.06
65384;BME280;51986;52.788;41.368;2022-12-07T04:05:23;101089.16;;;-10.51;58.86
65384;BME280;51986;52.788;41.368;2022-12-07T04:07:50;101077.31;;;-10.64;58.75
65384;BME280;51986;52.788;41.368;2022-12-07T04:10:18;101074.38;;;-10.99;59.69
65384;BME280;51986;52.788;41.368;2022-12-07T04:12:45;101096.09;;;-10.90;59.60
65384;BME280;51986;52.788;41.368;2022-12-07T04:15:12;101089.59;;;-10.86;59.54
65384;BME280;51986;52.788;41.368;2022-12-07T04:17:39;101089.41;;;-10.85;59.34
65384;BME280;51986;52.788;41.368;2022-12-07T04:20:06;101090.28;;;-10.97;59.74
65384;BME280;51986;52.788;41.368;2022-12-07T04:22:33;101113.25;;;-10.72;58.95
65384;BME280;51986;52.788;41.368;2022-12-07T04:25:01;101079.84;;;-10.96;59.40
65384;BME280;51986;52.788;41.368;2022-12-07T04:27:28;101086.03;;;-10.78;59.02
65384;BME280;51986;52.788;41.368;2022-12-07T04:29:54;101103.75;;;-10.90;59.47
65384;BME280;51986;52.788;41.368;2022-12-07T04:32:22;101071.38;;;-10.90;59.48
65384;BME280;51986;52.788;41.368;2022-12-07T04:34:50;101047.66;;;-11.22;59.23
65384;BME280;51986;52.788;41.368;2022-12-07T04:37:21;101099.31;;;-11.01;59.35
65384;BME280;51986;52.788;41.368;2022-12-07T04:39:49;101073.16;;;-10.90;58.68
65384;BME280;51986;52.788;41.368;2022-12-07T04:42:16;101084.13;;;-10.90;59.10
65384;BME280;51986;52.788;41.368;2022-12-07T04:44:43;101081.06;;;-10.98;59.13
65384;BME280;51986;52.788;41.368;2022-12-07T04:47:10;101102.75;;;-10.89;58.39
65384;BME280;51986;52.788;41.368;2022-12-07T04:49:37;101099.47;;;-10.96;59.10
65384;BME280;51986;52.788;41.368;2022-12-07T04:52:04;101105.34;;;-10.96;59.16
65384;BME280;51986;52.788;41.368;2022-12-07T04:54:31;101101.97;;;-10.90;58.59
65384;BME280;51986;52.788;41.368;2022-12-07T04:56:58;101112.78;;;-10.94;58.75
65384;BME280;51986;52.788;41.368;2022-12-07T04:59:25;101104.06;;;-11.12;59.99
65384;BME280;51986;52.788;41.368;2022-12-07T05:01:52;101091.88;;;-11.03;58.94
65384;BME280;51986;52.788;41.368;2022-12-07T05:04:19;101124.63;;;-11.07;59.58
65384;BME280;51986;52.788;41.368;2022-12-07T05:06:46;101097.31;;;-10.93;59.03
65384;BME280;51986;52.788;41.368;2022-12-07T05:09:13;101086.50;;;-10.88;58.81
65384;BME280;51986;52.788;41.368;2022-12-07T05:11:40;101086.66;;;-10.83;58.80
65384;BME280;51986;52.788;41.368;2022-12-07T05:14:15;101113.13;;;-10.84;58.71
65384;BME280;51986;52.788;41.368;2022-12-07T05:16:44;101100.97;;;-10.82;58.11
65384;BME280;51986;52.788;41.368;2022-12-07T05:19:12;101123.97;;;-10.95;58.51
65384;BME280;51986;52.788;41.368;2022-12-07T05:21:39;101130.72;;;-10.76;58.19
65384;BME280;51986;52.788;41.368;2022-12-07T05:24:07;101131.81;;;-10.97;58.99
65384;BME280;51986;52.788;41.368;2022-12-07T05:26:36;101124.19;;;-10.97;58.61
65384;BME280;51986;52.788;41.368;2022-12-07T05:29:03;101123.47;;;-11.11;58.77
65384;BME280;51986;52.788;41.368;2022-12-07T05:31:30;101121.63;;;-10.97;58.96
65384;BME280;51986;52.788;41.368;2022-12-07T05:33:57;101121.81;;;-10.92;58.74
65384;BME280;51986;52.788;41.368;2022-12-07T05:36:24;101114.81;;;-11.03;58.74
65384;BME280;51986;52.788;41.368;2022-12-07T05:38:51;101099.53;;;-11.10;59.06
65384;BME280;51986;52.788;41.368;2022-12-07T05:41:19;101106.56;;;-10.98;58.49
65384;BME280;51986;52.788;41.368;2022-12-07T05:43:46;101104.00;;;-10.98;58.49
65384;BME280;51986;52.788;41.368;2022-12-07T05:46:13;101094.38;;;-10.96;58.51
65384;BME280;51986;52.788;41.368;2022-12-07T05:48:40;101122.59;;;-10.91;58.51
65384;BME280;51986;52.788;41.368;2022-12-07T05:51:07;101113.59;;;-10.62;57.82
65384;BME280;51986;52.788;41.368;2022-12-07T05:53:34;101115.03;;;-10.73;57.56
65384;BME280;51986;52.788;41.368;2022-12-07T05:56:01;101109.50;;;-10.70;57.68
65384;BME280;51986;52.788;41.368;2022-12-07T05:58:27;101100.13;;;-10.76;57.81
65384;BME280;51986;52.788;41.368;2022-12-07T06:00:55;101126.34;;;-10.62;57.54
65384;BME280;51986;52.788;41.368;2022-12-07T06:03:22;101097.59;;;-10.51;57.44
65384;BME280;51986;52.788;41.368;2022-12-07T06:05:51;101120.16;;;-10.48;57.18
65384;BME280;51986;52.788;41.368;2022-12-07T06:08:18;101119.06;;;-10.34;57.00
65384;BME280;51986;52.788;41.368;2022-12-07T06:10:47;101119.22;;;-10.04;56.24
65384;BME280;51986;52.788;41.368;2022-12-07T06:13:14;101118.50;;;-10.36;56.66
65384;BME280;51986;52.788;41.368;2022-12-07T06:15:41;101117.84;;;-10.56;57.03
65384;BME280;51986;52.788;41.368;2022-12-07T06:18:08;101122.34;;;-10.51;56.92
65384;BME280;51986;52.788;41.368;2022-12-07T06:20:35;101126.94;;;-10.35;57.07
65384;BME280;51986;52.788;41.368;2022-12-07T06:23:01;101107.56;;;-10.18;56.08
65384;BME280;51986;52.788;41.368;2022-12-07T06:25:28;101097.78;;;-10.21;55.83
65384;BME280;51986;52.788;41.368;2022-12-07T06:27:55;101119.50;;;-10.12;55.44
65384;BME280;51986;52.788;41.368;2022-12-07T06:30:22;101113.91;;;-10.27;55.94
65384;BME280;51986;52.788;41.368;2022-12-07T06:32:49;101093.94;;;-10.30;56.06
65384;BME280;51986;52.788;41.368;2022-12-07T06:35:16;101120.78;;;-10.02;55.79
65384;BME280;51986;52.788;41.368;2022-12-07T06:37:43;101121.00;;;-9.86;55.48
65384;BME280;51986;52.788;41.368;2022-12-07T06:40:10;101125.34;;;-9.68;54.57
65384;BME280;51986;52.788;41.368;2022-12-07T06:42:37;101127.31;;;-9.52;54.73
65384;BME280;51986;52.788;41.368;2022-12-07T06:45:04;101128.69;;;-9.67;55.04
65384;BME280;51986;52.788;41.368;2022-12-07T06:47:32;101142.22;;;-9.67;55.40
65384;BME280;51986;52.788;41.368;2022-12-07T06:50:09;101125.78;;;-9.53;54.98
65384;BME280;51986;52.788;41.368;2022-12-07T06:52:36;101117.38;;;-9.41;54.44
65384;BME280;51986;52.788;41.368;2022-12-07T06:55:03;101135.72;;;-9.44;54.10
65384;BME280;51986;52.788;41.368;2022-12-07T06:57:30;101106.03;;;-9.45;54.17
65384;BME280;51986;52.788;41.368;2022-12-07T06:59:57;101121.03;;;-9.49;54.37
65384;BME280;51986;52.788;41.368;2022-12-07T07:02:24;101114.13;;;-9.30;54.20
65384;BME280;51986;52.788;41.368;2022-12-07T07:04:51;101145.34;;;-9.10;54.18
65384;BME280;51986;52.788;41.368;2022-12-07T07:07:18;101104.66;;;-9.11;53.33
65384;BME280;51986;52.788;41.368;2022-12-07T07:09:45;101100.00;;;-9.03;53.54
65384;BME280;51986;52.788;41.368;2022-12-07T07:12:12;101116.44;;;-9.10;53.75
65384;BME280;51986;52.788;41.368;2022-12-07T07:14:39;101094.59;;;-8.94;53.50
65384;BME280;51986;52.788;41.368;2022-12-07T07:17:06;101124.13;;;-8.99;53.07
65384;BME280;51986;52.788;41.368;2022-12-07T07:19:34;101108.94;;;-9.42;53.96
65384;BME280;51986;52.788;41.368;2022-12-07T07:22:00;101095.31;;;-8.76;53.32
65384;BME280;51986;52.788;41.368;2022-12-07T07:24:27;101101.38;;;-8.88;53.15
65384;BME280;51986;52.788;41.368;2022-12-07T07:26:56;101124.28;;;-8.93;52.94
65384;BME280;51986;52.788;41.368;2022-12-07T07:29:23;101097.56;;;-9.28;53.63
65384;BME280;51986;52.788;41.368;2022-12-07T07:31:50;101088.66;;;-8.65;53.14
65384;BME280;51986;52.788;41.368;2022-12-07T07:34:17;101111.38;;;-8.57;52.91
65384;BME280;51986;52.788;41.368;2022-12-07T07:36:44;101099.34;;;-8.56;52.51
65384;BME280;51986;52.788;41.368;2022-12-07T07:39:11;101110.25;;;-8.61;52.71
65384;BME280;51986;52.788;41.368;2022-12-07T07:41:38;101101.66;;;-8.66;52.34
65384;BME280;51986;52.788;41.368;2022-12-07T07:44:11;101098.25;;;-8.49;51.85
65384;BME280;51986;52.788;41.368;2022-12-07T07:46:39;101110.41;;;-8.32;52.07
65384;BME280;51986;52.788;41.368;2022-12-07T07:49:06;101084.47;;;-8.48;52.28
65384;BME280;51986;52.788;41.368;2022-12-07T07:51:33;101097.06;;;-8.34;52.23
65384;BME280;51986;52.788;41.368;2022-12-07T07:54:00;101102.50;;;-8.42;51.88
65384;BME280;51986;52.788;41.368;2022-12-07T07:56:27;101082.69;;;-8.35;51.73
65384;BME280;51986;52.788;41.368;2022-12-07T07:58:54;101098.81;;;-8.47;51.92
65384;BME280;51986;52.788;41.368;2022-12-07T08:01:21;101118.19;;;-8.27;51.23
65384;BME280;51986;52.788;41.368;2022-12-07T08:03:48;101060.31;;;-8.40;51.01
65384;BME280;51986;52.788;41.368;2022-12-07T08:06:16;101086.69;;;-8.16;51.33
65384;BME280;51986;52.788;41.368;2022-12-07T08:08:43;101087.16;;;-8.07;50.71
65384;BME280;51986;52.788;41.368;2022-12-07T08:11:10;101063.22;;;-8.13;51.00
65384;BME280;51986;52.788;41.368;2022-12-07T08:13:37;101061.09;;;-8.04;50.87
65384;BME280;51986;52.788;41.368;2022-12-07T08:16:09;101072.00;;;-7.97;50.90
65384;BME280;51986;52.788;41.368;2022-12-07T08:18:37;101073.41;;;-7.66;50.26
65384;BME280;51986;52.788;41.368;2022-12-07T08:21:06;101075.66;;;-7.81;50.07
65384;BME280;51986;52.788;41.368;2022-12-07T08:23:33;101056.38;;;-7.84;50.52
65384;BME280;51986;52.788;41.368;2022-12-07T08:26:08;101084.38;;;-7.82;50.24
65384;BME280;51986;52.788;41.368;2022-12-07T08:28:35;101042.38;;;-7.93;50.01
65384;BME280;51986;52.788;41.368;2022-12-07T08:31:10;101039.84;;;-7.64;50.06
65384;BME280;51986;52.788;41.368;2022-12-07T08:33:39;101045.22;;;-7.78;49.89
65384;BME280;51986;52.788;41.368;2022-12-07T08:36:09;101051.34;;;-7.67;50.25
65384;BME280;51986;52.788;41.368;2022-12-07T08:38:37;101038.75;;;-7.40;50.11
65384;BME280;51986;52.788;41.368;2022-12-07T08:41:05;101017.53;;;-7.35;49.03
65384;BME280;51986;52.788;41.368;2022-12-07T08:43:33;101002.75;;;-7.62;49.23
65384;BME280;51986;52.788;41.368;2022-12-07T08:48:40;101039.59;;;-7.06;49.17
65384;BME280;51986;52.788;41.368;2022-12-07T08:51:07;101029.97;;;-6.65;48.72
65384;BME280;51986;52.788;41.368;2022-12-07T08:53:35;101016.16;;;-6.81;48.16
65384;BME280;51986;52.788;41.368;2022-12-07T08:56:04;101036.75;;;-6.59;47.25
65384;BME280;51986;52.788;41.368;2022-12-07T08:58:33;101023.59;;;-6.79;47.75
65384;BME280;51986;52.788;41.368;2022-12-07T09:01:00;101026.25;;;-6.91;47.84
65384;BME280;51986;52.788;41.368;2022-12-07T09:03:27;101032.25;;;-6.85;47.75
65384;BME280;51986;52.788;41.368;2022-12-07T09:05:55;101037.22;;;-6.79;47.80
65384;BME280;51986;52.788;41.368;2022-12-07T09:08:30;101023.75;;;-6.69;47.66
65384;BME280;51986;52.788;41.368;2022-12-07T09:10:57;101023.06;;;-6.64;47.99
65384;BME280;51986;52.788;41.368;2022-12-07T09:13:24;101035.97;;;-6.76;47.25
65384;BME280;51986;52.788;41.368;2022-12-07T09:15:51;101021.97;;;-6.69;48.18
65384;BME280;51986;52.788;41.368;2022-12-07T09:18:18;101007.97;;;-6.61;46.99
65384;BME280;51986;52.788;41.368;2022-12-07T09:20:45;100987.44;;;-6.95;47.58
65384;BME280;51986;52.788;41.368;2022-12-07T09:23:12;100989.94;;;-6.66;47.39
65384;BME280;51986;52.788;41.368;2022-12-07T09:25:39;101014.47;;;-6.36;47.17
65384;BME280;51986;52.788;41.368;2022-12-07T09:28:06;100969.97;;;-6.20;46.50
65384;BME280;51986;52.788;41.368;2022-12-07T09:30:33;100978.72;;;-6.21;46.53
65384;BME280;51986;52.788;41.368;2022-12-07T09:33:20;100990.31;;;-6.57;47.17
65384;BME280;51986;52.788;41.368;2022-12-07T09:35:49;100972.16;;;-6.51;47.12
65384;BME280;51986;52.788;41.368;2022-12-07T09:38:17;100951.72;;;-6.02;46.38
65384;BME280;51986;52.788;41.368;2022-12-07T09:40:45;100991.16;;;-6.13;46.12
65384;BME280;51986;52.788;41.368;2022-12-07T09:43:19;100970.06;;;-5.93;46.40
65384;BME280;51986;52.788;41.368;2022-12-07T09:45:53;100991.69;;;-5.89;45.88
65384;BME280;51986;52.788;41.368;2022-12-07T09:48:30;100971.38;;;-5.91;45.83
65384;BME280;51986;52.788;41.368;2022-12-07T09:50:59;100972.19;;;-6.07;46.45
65384;BME280;51986;52.788;41.368;2022-12-07T09:53:33;100952.63;;;-6.13;46.14
65384;BME280;51986;52.788;41.368;2022-12-07T09:56:01;100952.94;;;-5.82;46.07
65384;BME280;51986;52.788;41.368;2022-12-07T09:58:30;100966.47;;;-5.92;46.43
65384;BME280;51986;52.788;41.368;2022-12-07T10:01:05;100968.16;;;-6.03;46.11
65384;BME280;51986;52.788;41.368;2022-12-07T10:03:38;100956.53;;;-6.49;46.83
65384;BME280;51986;52.788;41.368;2022-12-07T10:06:06;100962.22;;;-6.47;47.24
65384;BME280;51986;52.788;41.368;2022-12-07T10:08:33;100936.81;;;-6.44;46.72
65384;BME280;51986;52.788;41.368;2022-12-07T10:11:01;100967.66;;;-6.22;46.47
65384;BME280;51986;52.788;41.368;2022-12-07T10:13:40;100962.00;;;-6.24;47.22
65384;BME280;51986;52.788;41.368;2022-12-07T10:16:38;100954.22;;;-6.07;46.98
65384;BME280;51986;52.788;41.368;2022-12-07T10:19:23;100957.50;;;-6.33;47.19
65384;BME280;51986;52.788;41.368;2022-12-07T10:22:15;100958.72;;;-6.19;46.83
65384;BME280;51986;52.788;41.368;2022-12-07T10:24:43;100931.03;;;-6.34;47.39
65384;BME280;51986;52.788;41.368;2022-12-07T10:27:29;100942.59;;;-6.53;47.09
65384;BME280;51986;52.788;41.368;2022-12-07T10:29:57;100947.88;;;-6.21;46.51
65384;BME280;51986;52.788;41.368;2022-12-07T10:32:30;100954.44;;;-6.30;46.97
65384;BME280;51986;52.788;41.368;2022-12-07T10:35:21;100936.03;;;-6.44;47.29
65384;BME280;51986;52.788;41.368;2022-12-07T10:37:50;100938.44;;;-6.16;47.26
65384;BME280;51986;52.788;41.368;2022-12-07T10:40:25;100943.16;;;-6.29;47.34
65384;BME280;51986;52.788;41.368;2022-12-07T10:43:05;100934.22;;;-6.27;47.16
65384;BME280;51986;52.788;41.368;2022-12-07T10:45:34;100923.34;;;-6.56;47.86
65384;BME280;51986;52.788;41.368;2022-12-07T10:51:21;100928.06;;;-6.04;47.21
65384;BME280;51986;52.788;41.368;2022-12-07T10:54:04;100941.22;;;-6.00;46.45
65384;BME280;51986;52.788;41.368;2022-12-07T10:59:48;100929.75;;;-5.88;46.60
65384;BME280;51986;52.788;41.368;2022-12-07T11:02:41;100918.34;;;-5.97;46.39
65384;BME280;51986;52.788;41.368;2022-12-07T11:08:21;100932.41;;;-6.26;47.54
65384;BME280;51986;52.788;41.368;2022-12-07T11:11:21;100907.88;;;-6.39;47.08
65384;BME280;51986;52.788;41.368;2022-12-07T11:16:53;100912.75;;;-5.94;47.25
65384;BME280;51986;52.788;41.368;2022-12-07T11:31:12;100904.06;;;-5.88;46.32
65384;BME280;51986;52.788;41.368;2022-12-07T11:33:46;100892.31;;;-6.05;46.20
65384;BME280;51986;52.788;41.368;2022-12-07T11:36:45;100895.25;;;-5.70;46.14
65384;BME280;51986;52.788;41.368;2022-12-07T11:42:00;100884.56;;;-5.83;45.57
65384;BME280;51986;52.788;41.368;2022-12-07T11:47:35;100906.38;;;-6.13;46.52
65384;BME280;51986;52.788;41.368;2022-12-07T11:53:18;100901.88;;;-6.01;46.33
65384;BME280;51986;52.788;41.368;2022-12-07T11:56:12;100871.22;;;-5.85;46.28
65384;BME280;51986;52.788;41.368;2022-12-07T12:06:39;100875.13;;;-6.49;47.84
65384;BME280;51986;52.788;41.368;2022-12-07T12:18:21;100892.69;;;-6.41;48.06
65384;BME280;51986;52.788;41.368;2022-12-07T12:20:56;100877.66;;;-6.54;47.83
65384;BME280;51986;52.788;41.368;2022-12-07T12:23:40;100893.34;;;-6.72;48.49
65384;BME280;51986;52.788;41.368;2022-12-07T12:26:17;100885.09;;;-6.74;48.68
65384;BME280;51986;52.788;41.368;2022-12-07T12:31:38;100883.28;;;-6.96;49.20
65384;BME280;51986;52.788;41.368;2022-12-07T12:36:57;100870.50;;;-7.29;50.40
65384;BME280;51986;52.788;41.368;2022-12-07T12:39:25;100887.66;;;-7.13;50.09
65384;BME280;51986;52.788;41.368;2022-12-07T12:41:54;100882.34;;;-7.06;49.91
65384;BME280;51986;52.788;41.368;2022-12-07T12:51:58;100883.66;;;-7.42;50.87
65384;BME280;51986;52.788;41.368;2022-12-07T12:56:57;100879.25;;;-7.08;50.16
65384;BME280;51986;52.788;41.368;2022-12-07T12:59:32;100877.00;;;-7.22;50.58
65384;BME280;51986;52.788;41.368;2022-12-07T13:10:32;100872.75;;;-7.50;51.44
65384;BME280;51986;52.788;41.368;2022-12-07T13:18:35;100845.69;;;-7.40;51.37
65384;BME280;51986;52.788;41.368;2022-12-07T13:23:37;100844.94;;;-7.41;51.54
65384;BME280;51986;52.788;41.368;2022-12-07T13:26:23;100848.47;;;-7.47;52.21
65384;BME280;51986;52.788;41.368;2022-12-07T13:31:39;100866.97;;;-7.40;51.84
65384;BME280;51986;52.788;41.368;2022-12-07T13:34:34;100836.88;;;-7.66;53.24
65384;BME280;51986;52.788;41.368;2022-12-07T13:37:23;100847.81;;;-7.71;52.57
65384;BME280;51986;52.788;41.368;2022-12-07T13:39:57;100861.34;;;-7.59;52.44
65384;BME280;51986;52.788;41.368;2022-12-07T13:42:31;100862.03;;;-7.63;52.46
65384;BME280;51986;52.788;41.368;2022-12-07T13:45:00;100860.03;;;-7.61;52.34
65384;BME280;51986;52.788;41.368;2022-12-07T13:47:39;100833.63;;;-7.45;52.37
65384;BME280;51986;52.788;41.368;2022-12-07T13:50:24;100860.28;;;-7.63;52.92
65384;BME280;51986;52.788;41.368;2022-12-07T13:52:55;100857.13;;;-7.82;53.31
65384;BME280;51986;52.788;41.368;2022-12-07T13:55:22;100819.59;;;-8.05;53.51
65384;BME280;51986;52.788;41.368;2022-12-07T13:57:51;100846.66;;;-7.80;53.40
65384;BME280;51986;52.788;41.368;2022-12-07T14:00:24;100834.97;;;-7.88;53.83
65384;BME280;51986;52.788;41.368;2022-12-07T14:03:04;100849.66;;;-7.83;53.97
65384;BME280;51986;52.788;41.368;2022-12-07T14:06:04;100826.75;;;-7.90;53.78
65384;BME280;51986;52.788;41.368;2022-12-07T14:08:32;100835.91;;;-7.94;53.81
65384;BME280;51986;52.788;41.368;2022-12-07T14:10:59;100842.06;;;-7.95;53.98
65384;BME280;51986;52.788;41.368;2022-12-07T14:14:05;100852.81;;;-8.10;54.57
65384;BME280;51986;52.788;41.368;2022-12-07T14:16:35;100850.69;;;-8.13;54.57
65384;BME280;51986;52.788;41.368;2022-12-07T14:19:05;100843.59;;;-7.94;53.84
65384;BME280;51986;52.788;41.368;2022-12-07T14:21:33;100830.38;;;-8.03;54.59
65384;BME280;51986;52.788;41.368;2022-12-07T14:24:15;100844.88;;;-8.08;55.18
65384;BME280;51986;52.788;41.368;2022-12-07T14:26:48;100832.50;;;-8.28;55.21
65384;BME280;51986;52.788;41.368;2022-12-07T14:31:50;100834.78;;;-8.43;55.93
65384;BME280;51986;52.788;41.368;2022-12-07T14:34:19;100828.66;;;-8.42;55.74
65384;BME280;51986;52.788;41.368;2022-12-07T14:36:47;100841.09;;;-8.34;55.42
65384;BME280;51986;52.788;41.368;2022-12-07T14:39:14;100824.31;;;-8.42;55.38
65384;BME280;51986;52.788;41.368;2022-12-07T14:41:40;100819.09;;;-8.47;56.03
65384;BME280;51986;52.788;41.368;2022-12-07T14:44:11;100821.22;;;-8.44;55.30
65384;BME280;51986;52.788;41.368;2022-12-07T14:46:58;100833.91;;;-8.49;55.57
65384;BME280;51986;52.788;41.368;2022-12-07T14:49:45;100842.91;;;-8.47;55.97
65384;BME280;51986;52.788;41.368;2022-12-07T14:52:21;100820.03;;;-8.65;56.16